• Join FlightAware (Why Join?)
  • Login
  • US Flag 
10:15AM EST


 

Airport Tracker/Info


-or-


 

Live Flight TrackerFlight Track Log ✈ SWA542 ✈ 28-Apr-2013 ✈ KOAK - KSAN

Flight Track Log - Related Links

Times and Time Zones

All times are in EDT time to prevent confusion due to time zone crossing. See the SWA542 flight status page for this flight to view local times or setup timezone preferences in your user account.

Time Position Orientation Groundspeed Altitude Reporting Facility
EDT Latitude Longitude Course Direction KTS MPH feet Rate Location/Type
12:31AM 37.7500 -122.2667 200° South 188 216 2,500  Level Northern Cal TRACON
12:31AM 37.7525 -122.2919 277° West 192 221 4,000 3,780 Climbing Oakland Center
12:32AM 37.7411 -122.3611 258° West 226 260 7,900 3,240 Climbing Oakland Center
12:33AM 37.6711 -122.3933 200° South 274 315 10,700 2,820 Climbing Oakland Center
12:34AM 37.5794 -122.4192 193° South 339 390 13,700 3,060 Climbing Oakland Center
12:35AM 37.4764 -122.4447 191° South 372 428 17,000 3,360 Climbing Oakland Center
12:36AM 37.2313 -122.4380 200° South  Level FlightAware Approximate
12:37AM 37.3694 -122.4706 191° South 388 447 20,600  Level Oakland Center
12:38AM 37.2603 -122.4975 191° South 402 463 23,600 2,580 Climbing Oakland Center
12:39AM 37.1439 -122.5189 188° South 421 484 25,900 2,220 Climbing Oakland Center
12:40AM 37.0400 -122.4428 150° Southeast 436 502 28,100 2,100 Climbing Oakland Center
12:41AM 36.9383 -122.3506 144° Southeast 453 521 30,200 2,100 Climbing Oakland Center
12:43AM 36.7242 -122.1583 144° Southeast 462 532 34,400 1,980 Climbing Los Angeles Center
12:44AM 36.6100 -122.0489 142° Southeast 456 525 36,400 1,740 Climbing Oakland Center
12:45AM 36.5089 -121.9519 142° Southeast 460 529 38,100 1,500 Climbing Oakland Center
12:46AM 36.4092 -121.8578 143° Southeast 453 521 39,500 1,080 Climbing Oakland Center
12:47AM 36.3231 -121.7792 144° Southeast 452 520 40,400 720 Climbing Oakland Center
12:48AM 36.2036 -121.6675 143° Southeast 449 517 41,000 240 Climbing Oakland Center
12:49AM 36.1192 -121.5575 134° Southeast 441 507 41,000  Level Oakland Center
12:50AM 36.0414 -121.4394 129° Southeast 443 510 41,000  Level Oakland Center
12:51AM 35.9633 -121.3222 129° Southeast 442 509 41,000  Level Oakland Center
12:52AM 35.8858 -121.2056 129° Southeast 441 507 41,000  Level Oakland Center
12:53AM 35.8064 -121.0903 130° Southeast 443 510 41,000  Level Oakland Center
12:54AM 35.7289 -120.9742 129° Southeast 441 507 41,000  Level Oakland Center
12:55AM 35.6492 -120.8589 130° Southeast 444 511 41,000  Level Oakland Center
12:56AM 35.5711 -120.7425 129° Southeast 443 510 41,000  Level Oakland Center
12:57AM 35.4917 -120.6272 130° Southeast 445 512 41,000  Level Oakland Center
12:58AM 35.4119 -120.5125 130° Southeast 448 516 41,000  Level Oakland Center
12:59AM 35.3225 -120.3786 129° Southeast 455 524 41,000  Level Oakland Center
01:00AM 35.2417 -120.2617 130° Southeast 452 520 41,000  Level Oakland Center
01:01AM 35.1594 -120.1481 131° Southeast 447 514 41,000  Level Oakland Center
01:02AM 35.0792 -120.0325 130° Southeast 446 513 41,000  Level Oakland Center
01:03AM 34.9992 -119.9158 130° Southeast 449 517 41,000  Level Oakland Center
01:04AM 34.9025 -119.7806 131° Southeast 447 514 41,000  Level Los Angeles Center
01:05AM 34.8222 -119.6636 130° Southeast 449 517 41,000  Level Los Angeles Center
01:06AM 34.7389 -119.5486 131° Southeast 452 520 41,000  Level Los Angeles Center
01:07AM 34.6572 -119.4328 131° Southeast 452 520 41,000  Level Los Angeles Center
01:08AM 34.5767 -119.3206 131° Southeast 452 520 41,000  Level Los Angeles Center
01:09AM 34.4761 -119.1806 131° Southeast 457 526 41,000  Level Los Angeles Center
01:10AM 34.3911 -119.0647 132° Southeast 459 528 41,000  Level Los Angeles Center
01:11AM 34.3069 -118.9478 131° Southeast 461 531 41,000  Level Los Angeles Center
01:12AM 34.2231 -118.8308 131° Southeast 462 532 41,000  Level Los Angeles Center
01:13AM 34.1400 -118.7156 131° Southeast 457 526 41,000 -360 Level Los Angeles Center
01:14AM 34.0558 -118.6014 132° Southeast 455 524 40,300 -1,680 Descending Los Angeles Center
01:15AM 33.9719 -118.4869 131° Southeast 454 522 37,600 -2,580 Descending Los Angeles Center
01:16AM 33.8889 -118.3728 131° Southeast 451 519 35,100 -2,880 Descending Los Angeles Center
01:17AM 33.7950 -118.2569 134° Southeast 444 511 31,700 -2,880 Descending Los Angeles Center
01:18AM 33.7147 -118.1514 132° Southeast 446 513 29,300 -2,460 Descending Los Angeles Center
01:19AM 33.6336 -118.0478 133° Southeast 430 495 26,800 -2,340 Descending Los Angeles Center
01:20AM 33.5550 -117.9483 133° Southeast 417 480 24,600 -1,920 Descending Los Angeles Center
01:21AM 33.4803 -117.8539 133° Southeast 400 460 22,900 -1,680 Descending Los Angeles Center
01:22AM 33.4000 -117.7500 133° Southeast 371 427 21,500 -1,800 Descending Southern California TRACON
01:23AM 33.3333 -117.6667 134° Southeast 359 413 19,600 -1,860 Descending Southern California TRACON
01:24AM 33.2667 -117.5833 134° Southeast 350 403 17,800 -1,800 Descending Southern California TRACON
01:25AM 33.2000 -117.5167 140° Southeast 346 398 16,000 -2,280 Descending Southern California TRACON
01:26AM 33.1167 -117.4500 146° Southeast 350 403 13,300 -2,280 Descending Southern California TRACON
01:27AM 33.0333 -117.3833 146° Southeast 334 384 11,500 -1,620 Descending Southern California TRACON
01:28AM 32.9667 -117.3333 148° Southeast 317 365 10,100 -1,380 Descending Southern California TRACON
01:29AM 32.9000 -117.2833 148° Southeast 293 337 8,800 -1,320 Descending Southern California TRACON
01:30AM 32.8333 -117.2167 140° Southeast 287 330 7,500 -1,020 Descending Southern California TRACON
01:31AM 32.8206 -117.2167 180° South 288 331 7,500 -660 Level Los Angeles Center
01:32AM 32.7961 -117.1375 110° East 264 304 6,700 -1,020 Descending Los Angeles Center
01:32AM 32.7833 -117.0667 102° East 240 276 5,800 -1,020 Descending Southern California TRACON
01:33AM 32.7667 -116.9833 103° East 243 280 5,000 -900 Descending Southern California TRACON
01:34AM 32.7167 -116.9667 164° South 236 272 4,000 -1,140 Descending Southern California TRACON
01:35AM 32.7000 -117.0167 248° West 207 238 2,800 -1,140 Descending Southern California TRACON
01:36AM 32.7000 -117.0833 270° West 168 193 1,800 -1,020 Descending Southern California TRACON
01:37AM 32.7167 -117.1333 292° West 134 154 800 -780 Descending Southern California TRACON
01:38AM 32.7206 -117.1378 316° Northwest 137 158 700 -420 Descending Los Angeles Center
01:39AM 32.7322 -117.1853 286° West 135 155 200 -540 Descending Los Angeles Center
01:41AM 32.7336 -117.1897 253° West  Level Estimated